Terminal Aerodrome Forecast
Issued by NWS Cleveland, OH

Home | Current Version | Previous Version | Text Only | Print | Product List | Glossary On
Versions: 1 2 3 4 5 6 7 8 9 10 11 12 13 14
000
FTUS41 KCLE 301100
TAFERI
TAF
KERI 301136Z 3012/0112 22006KT 5SM BR SCT007 OVC050
      TEMPO 3012/3014 2SM -RA BR OVC007
     FM301400 29006KT 5SM -RA BR SCT007 OVC015
      TEMPO 3014/3018 2SM -RA BR OVC007
     FM301800 34006KT P6SM BKN007 OVC015
      TEMPO 3018/3020 4SM -RA BR OVC007
     FM010100 36004KT P6SM OVC003=

USA.gov is the U.S. government's official web portal to all federal, state and local government web resources and services.